<?xml version="1.0" encoding="UTF-8" standalone="no" ?>
<gpx xmlns="http://www.topografix.com/GPX/1/1" xmlns:xsi="http://www.w3.org/2001/XMLSchema-instance" xsi:schemaLocation="http://www.topografix.com/GPX/1/1 http://www.topografix.com/GPX/1/1/gpx.xsd" version="1.1" creator="VisuGPX - https://www.visugpx.com">
  <metadata>
    <name>Tracé Equipe F du point 2 à l' Arrivée-16183076</name>
  </metadata>
  <trk>
    <name><![CDATA[Tracé Equipe F du point 2 à l' Arrivée-16183076]]></name>
    <trkseg>
      <trkpt lat="48.41617" lon="2.60764">
        <ele>88</ele>
        <time>2023-02-27T12:43:28Z</time>
      </trkpt>
      <trkpt lat="48.41534" lon="2.60795">
        <ele>91</ele>
        <time>2023-02-27T12:43:48Z</time>
      </trkpt>
      <trkpt lat="48.4145" lon="2.60825">
        <ele>91</ele>
        <time>2023-02-27T12:44:08Z</time>
      </trkpt>
      <trkpt lat="48.41367" lon="2.60853">
        <ele>90</ele>
        <time>2023-02-27T12:44:28Z</time>
      </trkpt>
      <trkpt lat="48.41284" lon="2.60881">
        <ele>88</ele>
        <time>2023-02-27T12:44:48Z</time>
      </trkpt>
      <trkpt lat="48.4115" lon="2.60931">
        <ele>93</ele>
        <time>2023-02-27T12:45:20Z</time>
      </trkpt>
      <trkpt lat="48.41115" lon="2.60949">
        <ele>94</ele>
        <time>2023-02-27T12:45:29Z</time>
      </trkpt>
      <trkpt lat="48.411" lon="2.60872">
        <ele>95</ele>
        <time>2023-02-27T12:45:41Z</time>
      </trkpt>
      <trkpt lat="48.41085" lon="2.60836">
        <ele>95</ele>
        <time>2023-02-27T12:45:48Z</time>
      </trkpt>
      <trkpt lat="48.41058" lon="2.6081">
        <ele>95</ele>
        <time>2023-02-27T12:45:55Z</time>
      </trkpt>
      <trkpt lat="48.41004" lon="2.60796">
        <ele>96</ele>
        <time>2023-02-27T12:46:08Z</time>
      </trkpt>
      <trkpt lat="48.40923" lon="2.60778">
        <ele>101</ele>
        <time>2023-02-27T12:46:27Z</time>
      </trkpt>
      <trkpt lat="48.40868" lon="2.60795">
        <ele>105</ele>
        <time>2023-02-27T12:46:40Z</time>
      </trkpt>
      <trkpt lat="48.40807" lon="2.60818">
        <ele>109</ele>
        <time>2023-02-27T12:46:55Z</time>
      </trkpt>
      <trkpt lat="48.40771" lon="2.60868">
        <ele>113</ele>
        <time>2023-02-27T12:47:06Z</time>
      </trkpt>
      <trkpt lat="48.4075" lon="2.61138">
        <ele>116</ele>
        <time>2023-02-27T12:47:49Z</time>
      </trkpt>
      <trkpt lat="48.40742" lon="2.61232">
        <ele>118</ele>
        <time>2023-02-27T12:48:03Z</time>
      </trkpt>
      <trkpt lat="48.40698" lon="2.6146">
        <ele>125</ele>
        <time>2023-02-27T12:48:40Z</time>
      </trkpt>
      <trkpt lat="48.40641" lon="2.61968">
        <ele>121</ele>
        <time>2023-02-27T12:50:00Z</time>
      </trkpt>
      <trkpt lat="48.40584" lon="2.62329">
        <ele>127</ele>
        <time>2023-02-27T12:50:57Z</time>
      </trkpt>
      <trkpt lat="48.4056" lon="2.6228">
        <ele>129</ele>
        <time>2023-02-27T12:51:07Z</time>
      </trkpt>
      <trkpt lat="48.40533" lon="2.62261">
        <ele>130</ele>
        <time>2023-02-27T12:51:14Z</time>
      </trkpt>
      <trkpt lat="48.40498" lon="2.62277">
        <ele>132</ele>
        <time>2023-02-27T12:51:22Z</time>
      </trkpt>
      <trkpt lat="48.40427" lon="2.6142">
        <ele>136</ele>
        <time>2023-02-27T12:53:36Z</time>
      </trkpt>
      <trkpt lat="48.40413" lon="2.61415">
        <ele>137</ele>
        <time>2023-02-27T12:53:40Z</time>
      </trkpt>
      <trkpt lat="48.40349" lon="2.61403">
        <ele>134</ele>
        <time>2023-02-27T12:53:55Z</time>
      </trkpt>
      <trkpt lat="48.40285" lon="2.61391">
        <ele>131</ele>
        <time>2023-02-27T12:54:10Z</time>
      </trkpt>
      <trkpt lat="48.40276" lon="2.61385">
        <ele>130</ele>
        <time>2023-02-27T12:54:12Z</time>
      </trkpt>
      <trkpt lat="48.40263" lon="2.61371">
        <ele>130</ele>
        <time>2023-02-27T12:54:16Z</time>
      </trkpt>
      <trkpt lat="48.40251" lon="2.61367">
        <ele>130</ele>
        <time>2023-02-27T12:54:19Z</time>
      </trkpt>
      <trkpt lat="48.40207" lon="2.61382">
        <ele>130</ele>
        <time>2023-02-27T12:54:29Z</time>
      </trkpt>
      <trkpt lat="48.40193" lon="2.61385">
        <ele>130</ele>
        <time>2023-02-27T12:54:32Z</time>
      </trkpt>
      <trkpt lat="48.40128" lon="2.61388">
        <ele>129</ele>
        <time>2023-02-27T12:54:48Z</time>
      </trkpt>
      <trkpt lat="48.40091" lon="2.614">
        <ele>129</ele>
        <time>2023-02-27T12:54:57Z</time>
      </trkpt>
      <trkpt lat="48.4008" lon="2.61408">
        <ele>130</ele>
        <time>2023-02-27T12:54:59Z</time>
      </trkpt>
      <trkpt lat="48.40061" lon="2.6143">
        <ele>130</ele>
        <time>2023-02-27T12:55:05Z</time>
      </trkpt>
      <trkpt lat="48.40051" lon="2.61434">
        <ele>130</ele>
        <time>2023-02-27T12:55:07Z</time>
      </trkpt>
      <trkpt lat="48.40019" lon="2.61437">
        <ele>130</ele>
        <time>2023-02-27T12:55:15Z</time>
      </trkpt>
      <trkpt lat="48.39994" lon="2.61445">
        <ele>131</ele>
        <time>2023-02-27T12:55:21Z</time>
      </trkpt>
      <trkpt lat="48.3994" lon="2.6144">
        <ele>133</ele>
        <time>2023-02-27T12:55:33Z</time>
      </trkpt>
      <trkpt lat="48.39862" lon="2.61425">
        <ele>135</ele>
        <time>2023-02-27T12:55:52Z</time>
      </trkpt>
      <trkpt lat="48.39765" lon="2.61411">
        <ele>135</ele>
        <time>2023-02-27T12:56:15Z</time>
      </trkpt>
      <trkpt lat="48.39734" lon="2.61407">
        <ele>135</ele>
        <time>2023-02-27T12:56:22Z</time>
      </trkpt>
      <trkpt lat="48.39643" lon="2.61745">
        <ele>135</ele>
        <time>2023-02-27T12:57:18Z</time>
      </trkpt>
      <trkpt lat="48.39623" lon="2.61819">
        <ele>135</ele>
        <time>2023-02-27T12:57:31Z</time>
      </trkpt>
      <trkpt lat="48.39633" lon="2.61832">
        <ele>135</ele>
        <time>2023-02-27T12:57:34Z</time>
      </trkpt>
      <trkpt lat="48.39771" lon="2.61938">
        <ele>136</ele>
        <time>2023-02-27T12:58:10Z</time>
      </trkpt>
      <trkpt lat="48.39787" lon="2.6195">
        <ele>136</ele>
        <time>2023-02-27T12:58:14Z</time>
      </trkpt>
      <trkpt lat="48.40028" lon="2.62506">
        <ele>135</ele>
        <time>2023-02-27T12:59:57Z</time>
      </trkpt>
      <trkpt lat="48.40041" lon="2.62536">
        <ele>135</ele>
        <time>2023-02-27T13:00:03Z</time>
      </trkpt>
      <trkpt lat="48.40217" lon="2.62817">
        <ele>144</ele>
        <time>2023-02-27T13:01:03Z</time>
      </trkpt>
      <trkpt lat="48.40276" lon="2.62911">
        <ele>142</ele>
        <time>2023-02-27T13:01:23Z</time>
      </trkpt>
      <trkpt lat="48.40302" lon="2.62912">
        <ele>141</ele>
        <time>2023-02-27T13:01:29Z</time>
      </trkpt>
      <trkpt lat="48.4032" lon="2.62919">
        <ele>141</ele>
        <time>2023-02-27T13:01:33Z</time>
      </trkpt>
      <trkpt lat="48.40373" lon="2.62949">
        <ele>140</ele>
        <time>2023-02-27T13:01:46Z</time>
      </trkpt>
      <trkpt lat="48.40429" lon="2.63011">
        <ele>139</ele>
        <time>2023-02-27T13:02:03Z</time>
      </trkpt>
      <trkpt lat="48.40449" lon="2.63028">
        <ele>137</ele>
        <time>2023-02-27T13:02:08Z</time>
      </trkpt>
      <trkpt lat="48.40463" lon="2.63183">
        <ele>134</ele>
        <time>2023-02-27T13:02:32Z</time>
      </trkpt>
      <trkpt lat="48.40492" lon="2.63225">
        <ele>135</ele>
        <time>2023-02-27T13:02:42Z</time>
      </trkpt>
      <trkpt lat="48.40448" lon="2.63546">
        <ele>138</ele>
        <time>2023-02-27T13:03:32Z</time>
      </trkpt>
      <trkpt lat="48.40436" lon="2.63632">
        <ele>139</ele>
        <time>2023-02-27T13:03:46Z</time>
      </trkpt>
      <trkpt lat="48.40412" lon="2.63816">
        <ele>137</ele>
        <time>2023-02-27T13:04:15Z</time>
      </trkpt>
      <trkpt lat="48.40413" lon="2.63845">
        <ele>136</ele>
        <time>2023-02-27T13:04:20Z</time>
      </trkpt>
      <trkpt lat="48.40386" lon="2.63937">
        <ele>136</ele>
        <time>2023-02-27T13:04:35Z</time>
      </trkpt>
      <trkpt lat="48.40358" lon="2.64028">
        <ele>134</ele>
        <time>2023-02-27T13:04:51Z</time>
      </trkpt>
      <trkpt lat="48.40306" lon="2.64401">
        <ele>124</ele>
        <time>2023-02-27T13:05:50Z</time>
      </trkpt>
      <trkpt lat="48.40288" lon="2.64525">
        <ele>122</ele>
        <time>2023-02-27T13:06:09Z</time>
      </trkpt>
      <trkpt lat="48.40232" lon="2.64893">
        <ele>113</ele>
        <time>2023-02-27T13:07:08Z</time>
      </trkpt>
      <trkpt lat="48.40186" lon="2.65213">
        <ele>104</ele>
        <time>2023-02-27T13:07:59Z</time>
      </trkpt>
      <trkpt lat="48.40172" lon="2.65312">
        <ele>103</ele>
        <time>2023-02-27T13:08:14Z</time>
      </trkpt>
      <trkpt lat="48.40156" lon="2.65428">
        <ele>101</ele>
        <time>2023-02-27T13:08:33Z</time>
      </trkpt>
      <trkpt lat="48.40135" lon="2.65675">
        <ele>100</ele>
        <time>2023-02-27T13:09:11Z</time>
      </trkpt>
      <trkpt lat="48.40124" lon="2.65799">
        <ele>102</ele>
        <time>2023-02-27T13:09:31Z</time>
      </trkpt>
      <trkpt lat="48.40121" lon="2.65868">
        <ele>102</ele>
        <time>2023-02-27T13:09:42Z</time>
      </trkpt>
      <trkpt lat="48.40118" lon="2.65936">
        <ele>100</ele>
        <time>2023-02-27T13:09:52Z</time>
      </trkpt>
      <trkpt lat="48.40114" lon="2.65955">
        <ele>99</ele>
        <time>2023-02-27T13:09:55Z</time>
      </trkpt>
      <trkpt lat="48.40098" lon="2.66041">
        <ele>97</ele>
        <time>2023-02-27T13:10:09Z</time>
      </trkpt>
      <trkpt lat="48.40325" lon="2.66054">
        <ele>96</ele>
        <time>2023-02-27T13:11:02Z</time>
      </trkpt>
      <trkpt lat="48.40378" lon="2.66061">
        <ele>99</ele>
        <time>2023-02-27T13:11:15Z</time>
      </trkpt>
      <trkpt lat="48.40382" lon="2.65656">
        <ele>97</ele>
        <time>2023-02-27T13:12:17Z</time>
      </trkpt>
      <trkpt lat="48.40383" lon="2.65538">
        <ele>98</ele>
        <time>2023-02-27T13:12:36Z</time>
      </trkpt>
      <trkpt lat="48.40403" lon="2.65359">
        <ele>99</ele>
        <time>2023-02-27T13:13:04Z</time>
      </trkpt>
      <trkpt lat="48.40413" lon="2.6527">
        <ele>99</ele>
        <time>2023-02-27T13:13:18Z</time>
      </trkpt>
      <trkpt lat="48.40421" lon="2.65194">
        <ele>101</ele>
        <time>2023-02-27T13:13:30Z</time>
      </trkpt>
      <trkpt lat="48.40428" lon="2.65119">
        <ele>104</ele>
        <time>2023-02-27T13:13:41Z</time>
      </trkpt>
      <trkpt lat="48.40438" lon="2.65085">
        <ele>105</ele>
        <time>2023-02-27T13:13:47Z</time>
      </trkpt>
      <trkpt lat="48.40469" lon="2.65029">
        <ele>109</ele>
        <time>2023-02-27T13:13:59Z</time>
      </trkpt>
      <trkpt lat="48.40524" lon="2.6496">
        <ele>112</ele>
        <time>2023-02-27T13:14:15Z</time>
      </trkpt>
      <trkpt lat="48.40553" lon="2.64899">
        <ele>114</ele>
        <time>2023-02-27T13:14:27Z</time>
      </trkpt>
      <trkpt lat="48.40565" lon="2.64879">
        <ele>115</ele>
        <time>2023-02-27T13:14:31Z</time>
      </trkpt>
      <trkpt lat="48.40577" lon="2.64831">
        <ele>117</ele>
        <time>2023-02-27T13:14:39Z</time>
      </trkpt>
      <trkpt lat="48.40578" lon="2.64808">
        <ele>118</ele>
        <time>2023-02-27T13:14:43Z</time>
      </trkpt>
      <trkpt lat="48.40579" lon="2.64784">
        <ele>118</ele>
        <time>2023-02-27T13:14:46Z</time>
      </trkpt>
      <trkpt lat="48.4059" lon="2.64727">
        <ele>120</ele>
        <time>2023-02-27T13:14:56Z</time>
      </trkpt>
      <trkpt lat="48.40614" lon="2.64635">
        <ele>125</ele>
        <time>2023-02-27T13:15:11Z</time>
      </trkpt>
      <trkpt lat="48.4061" lon="2.64591">
        <ele>126</ele>
        <time>2023-02-27T13:15:18Z</time>
      </trkpt>
      <trkpt lat="48.40595" lon="2.64523">
        <ele>127</ele>
        <time>2023-02-27T13:15:29Z</time>
      </trkpt>
      <trkpt lat="48.40599" lon="2.64445">
        <ele>129</ele>
        <time>2023-02-27T13:15:41Z</time>
      </trkpt>
      <trkpt lat="48.40625" lon="2.64414">
        <ele>131</ele>
        <time>2023-02-27T13:15:49Z</time>
      </trkpt>
      <trkpt lat="48.40633" lon="2.64371">
        <ele>133</ele>
        <time>2023-02-27T13:15:56Z</time>
      </trkpt>
      <trkpt lat="48.40633" lon="2.64265">
        <ele>135</ele>
        <time>2023-02-27T13:16:12Z</time>
      </trkpt>
      <trkpt lat="48.40649" lon="2.6424">
        <ele>136</ele>
        <time>2023-02-27T13:16:17Z</time>
      </trkpt>
      <trkpt lat="48.40662" lon="2.64198">
        <ele>137</ele>
        <time>2023-02-27T13:16:25Z</time>
      </trkpt>
      <trkpt lat="48.40688" lon="2.64133">
        <ele>136</ele>
        <time>2023-02-27T13:16:36Z</time>
      </trkpt>
      <trkpt lat="48.40694" lon="2.64104">
        <ele>136</ele>
        <time>2023-02-27T13:16:41Z</time>
      </trkpt>
      <trkpt lat="48.40745" lon="2.64128">
        <ele>136</ele>
        <time>2023-02-27T13:16:54Z</time>
      </trkpt>
      <trkpt lat="48.40774" lon="2.64203">
        <ele>136</ele>
        <time>2023-02-27T13:17:07Z</time>
      </trkpt>
      <trkpt lat="48.408" lon="2.64279">
        <ele>137</ele>
        <time>2023-02-27T13:17:20Z</time>
      </trkpt>
      <trkpt lat="48.4086" lon="2.64649">
        <ele>138</ele>
        <time>2023-02-27T13:18:19Z</time>
      </trkpt>
      <trkpt lat="48.40888" lon="2.64774">
        <ele>137</ele>
        <time>2023-02-27T13:18:40Z</time>
      </trkpt>
      <trkpt lat="48.40979" lon="2.65053">
        <ele>137</ele>
        <time>2023-02-27T13:19:28Z</time>
      </trkpt>
      <trkpt lat="48.41012" lon="2.65147">
        <ele>135</ele>
        <time>2023-02-27T13:19:44Z</time>
      </trkpt>
      <trkpt lat="48.41141" lon="2.65542">
        <ele>136</ele>
        <time>2023-02-27T13:20:53Z</time>
      </trkpt>
      <trkpt lat="48.41159" lon="2.65595">
        <ele>136</ele>
        <time>2023-02-27T13:21:02Z</time>
      </trkpt>
      <trkpt lat="48.41121" lon="2.65587">
        <ele>136</ele>
        <time>2023-02-27T13:21:11Z</time>
      </trkpt>
      <trkpt lat="48.40871" lon="2.65484">
        <ele>136</ele>
        <time>2023-02-27T13:22:11Z</time>
      </trkpt>
      <trkpt lat="48.40807" lon="2.65458">
        <ele>134</ele>
        <time>2023-02-27T13:22:27Z</time>
      </trkpt>
      <trkpt lat="48.40855" lon="2.65892">
        <ele>138</ele>
        <time>2023-02-27T13:23:35Z</time>
      </trkpt>
      <trkpt lat="48.40861" lon="2.65946">
        <ele>138</ele>
        <time>2023-02-27T13:23:44Z</time>
      </trkpt>
      <trkpt lat="48.40782" lon="2.66161">
        <ele>132</ele>
        <time>2023-02-27T13:24:22Z</time>
      </trkpt>
      <trkpt lat="48.40772" lon="2.66182">
        <ele>130</ele>
        <time>2023-02-27T13:24:26Z</time>
      </trkpt>
      <trkpt lat="48.4077" lon="2.66335">
        <ele>133</ele>
        <time>2023-02-27T13:24:49Z</time>
      </trkpt>
      <trkpt lat="48.40777" lon="2.66431">
        <ele>134</ele>
        <time>2023-02-27T13:25:04Z</time>
      </trkpt>
      <trkpt lat="48.40782" lon="2.6651">
        <ele>133</ele>
        <time>2023-02-27T13:25:17Z</time>
      </trkpt>
      <trkpt lat="48.40785" lon="2.66576">
        <ele>133</ele>
        <time>2023-02-27T13:25:27Z</time>
      </trkpt>
      <trkpt lat="48.40809" lon="2.66773">
        <ele>132</ele>
        <time>2023-02-27T13:25:58Z</time>
      </trkpt>
      <trkpt lat="48.40824" lon="2.6687">
        <ele>133</ele>
        <time>2023-02-27T13:26:13Z</time>
      </trkpt>
      <trkpt lat="48.40891" lon="2.66816">
        <ele>134</ele>
        <time>2023-02-27T13:26:31Z</time>
      </trkpt>
      <trkpt lat="48.40914" lon="2.66818">
        <ele>134</ele>
        <time>2023-02-27T13:26:37Z</time>
      </trkpt>
      <trkpt lat="48.40967" lon="2.66824">
        <ele>130</ele>
        <time>2023-02-27T13:26:49Z</time>
      </trkpt>
      <trkpt lat="48.41031" lon="2.67338">
        <ele>106</ele>
        <time>2023-02-27T13:28:10Z</time>
      </trkpt>
      <trkpt lat="48.41035" lon="2.67357">
        <ele>106</ele>
        <time>2023-02-27T13:28:13Z</time>
      </trkpt>
      <trkpt lat="48.41025" lon="2.67376">
        <ele>106</ele>
        <time>2023-02-27T13:28:17Z</time>
      </trkpt>
      <trkpt lat="48.40993" lon="2.67478">
        <ele>104</ele>
        <time>2023-02-27T13:28:34Z</time>
      </trkpt>
      <trkpt lat="48.40871" lon="2.67808">
        <ele>95</ele>
        <time>2023-02-27T13:29:33Z</time>
      </trkpt>
      <trkpt lat="48.40836" lon="2.67914">
        <ele>94</ele>
        <time>2023-02-27T13:29:51Z</time>
      </trkpt>
      <trkpt lat="48.40728" lon="2.67568">
        <ele>95</ele>
        <time>2023-02-27T13:30:51Z</time>
      </trkpt>
      <trkpt lat="48.40698" lon="2.67472">
        <ele>96</ele>
        <time>2023-02-27T13:31:07Z</time>
      </trkpt>
      <trkpt lat="48.40634" lon="2.67556">
        <ele>89</ele>
        <time>2023-02-27T13:31:27Z</time>
      </trkpt>
      <trkpt lat="48.40563" lon="2.67655">
        <ele>85</ele>
        <time>2023-02-27T13:31:49Z</time>
      </trkpt>
      <trkpt lat="48.40547" lon="2.67679">
        <ele>85</ele>
        <time>2023-02-27T13:31:55Z</time>
      </trkpt>
      <trkpt lat="48.4053" lon="2.6778">
        <ele>85</ele>
        <time>2023-02-27T13:32:11Z</time>
      </trkpt>
      <trkpt lat="48.40515" lon="2.679">
        <ele>83</ele>
        <time>2023-02-27T13:32:30Z</time>
      </trkpt>
      <trkpt lat="48.4045" lon="2.6835">
        <ele>83</ele>
        <time>2023-02-27T13:33:41Z</time>
      </trkpt>
    </trkseg>
  </trk>
</gpx>